createdAt,value
2023-04-17T00:03:07.328Z,36.88
2023-04-17T00:07:22.972Z,38.78
2023-04-17T00:11:35.465Z,39.35
2023-04-17T00:15:47.828Z,39.17
2023-04-17T00:20:00.218Z,45.80
2023-04-17T00:24:13.444Z,47.53
2023-04-17T00:28:26.452Z,42.05
2023-04-17T00:32:39.002Z,42.20
2023-04-17T00:36:51.395Z,47.65
2023-04-17T00:41:03.878Z,46.20
2023-04-17T00:45:16.822Z,44.10
2023-04-17T00:49:32.629Z,47.33
2023-04-17T00:53:46.246Z,49.28
2023-04-17T00:57:59.397Z,51.30
2023-04-17T01:02:13.399Z,54.75
2023-04-17T01:06:27.369Z,64.22
2023-04-17T01:10:39.845Z,62.78
2023-04-17T01:14:55.328Z,64.28
2023-04-17T01:19:09.554Z,65.70
2023-04-17T01:23:26.286Z,69.38
2023-04-17T01:27:38.875Z,71.45
2023-04-17T01:31:51.617Z,73.13
2023-04-17T01:36:04.228Z,74.53
2023-04-17T01:40:16.761Z,79.18
2023-04-17T01:44:29.978Z,78.15
2023-04-17T01:48:42.473Z,80.07
2023-04-17T01:52:55.004Z,76.30
2023-04-17T01:57:07.368Z,74.18
2023-04-17T02:01:20.208Z,80.93
2023-04-17T02:05:32.720Z,72.47
2023-04-17T02:09:45.212Z,78.40
2023-04-17T02:13:57.637Z,82.63
2023-04-17T02:18:10.345Z,80.88
2023-04-17T02:22:23.015Z,82.18
2023-04-17T02:26:37.338Z,76.28
2023-04-17T02:30:50.950Z,74.68
2023-04-17T02:35:03.447Z,73.22
2023-04-17T02:39:17.495Z,76.13
2023-04-17T02:43:30.559Z,69.85
2023-04-17T02:47:43.160Z,66.35
2023-04-17T02:51:56.105Z,64.90
2023-04-17T02:56:08.641Z,67.53
2023-04-17T03:00:23.166Z,62.17
2023-04-17T03:04:38.994Z,62.15
2023-04-17T03:08:51.878Z,66.72
2023-04-17T03:13:04.861Z,58.67
2023-04-17T03:17:18.668Z,61.38
2023-04-17T03:21:31.706Z,53.80
2023-04-17T03:25:44.593Z,61.83
2023-04-17T03:29:57.586Z,63.17
2023-04-17T03:34:11.761Z,57.17
2023-04-17T03:38:24.671Z,60.25
2023-04-17T03:42:38.149Z,67.00
2023-04-17T03:46:51.011Z,70.07
2023-04-17T03:51:04.347Z,71.68
2023-04-17T03:55:18.425Z,75.20
2023-04-17T03:59:34.084Z,70.50
2023-04-17T04:03:46.817Z,74.72
2023-04-17T04:07:59.564Z,85.47
2023-04-17T04:12:23.219Z,76.35
2023-04-17T04:16:36.277Z,83.30
2023-04-17T04:20:55.107Z,85.53
2023-04-17T04:25:16.396Z,79.45
2023-04-17T04:29:35.532Z,82.50
2023-04-17T04:33:55.453Z,83.00
2023-04-17T04:38:09.970Z,80.30
2023-04-17T04:42:23.732Z,75.57
2023-04-17T04:46:47.397Z,69.25
2023-04-17T04:51:00.820Z,63.05
2023-04-17T04:55:14.804Z,68.93
2023-04-17T04:59:32.691Z,79.70
2023-04-17T05:04:03.802Z,89.90
2023-04-17T05:08:16.874Z,83.50
2023-04-17T05:12:37.437Z,78.45
2023-04-17T05:16:52.936Z,78.88
2023-04-17T05:21:06.008Z,79.43
2023-04-17T05:25:20.044Z,71.63
2023-04-17T05:29:33.367Z,66.53
2023-04-17T05:33:46.147Z,66.97
2023-04-17T05:37:58.737Z,64.85
2023-04-17T05:42:11.226Z,64.38
2023-04-17T05:46:23.648Z,67.28
2023-04-17T05:50:37.745Z,63.72
2023-04-17T05:54:51.484Z,57.88
2023-04-17T05:59:05.934Z,58.20
2023-04-17T06:03:19.895Z,46.17
2023-04-17T06:07:38.730Z,37.42
2023-04-17T06:11:51.745Z,36.03
2023-04-17T06:16:04.654Z,26.98
2023-04-17T06:20:17.208Z,25.50
2023-04-17T06:24:29.719Z,22.98
2023-04-17T06:28:43.038Z,25.25
2023-04-17T06:32:56.058Z,24.25
2023-04-17T06:37:08.600Z,24.00
2023-04-17T06:41:23.781Z,20.92
2023-04-17T06:45:36.416Z,15.75
2023-04-17T06:49:51.671Z,14.18
2023-04-17T06:54:04.109Z,12.55
2023-04-17T06:58:16.515Z,14.23
2023-04-17T07:02:29.154Z,10.50
2023-04-17T07:06:42.213Z,12.27
2023-04-17T07:10:55.288Z,7.00
2023-04-17T07:15:08.841Z,6.25
2023-04-17T07:19:21.244Z,9.98
2023-04-17T07:23:33.658Z,9.25
2023-04-17T07:27:46.405Z,8.73
2023-04-17T07:31:59.114Z,9.95
2023-04-17T07:36:12.288Z,7.15
2023-04-17T07:40:24.996Z,7.40
2023-04-17T07:44:39.275Z,20.35
2023-04-17T07:48:51.701Z,16.33
2023-04-17T07:53:04.155Z,13.73
2023-04-17T07:57:18.341Z,13.88
2023-04-17T08:01:32.217Z,13.43
2023-04-17T08:05:44.672Z,16.38
2023-04-17T08:09:57.255Z,19.65
2023-04-17T08:14:11.847Z,17.48
2023-04-17T08:18:24.275Z,17.75
2023-04-17T08:22:41.304Z,18.45
2023-04-17T08:26:53.765Z,13.52
2023-04-17T08:31:06.497Z,10.85
2023-04-17T08:35:19.273Z,15.77
2023-04-17T08:39:31.772Z,9.35
2023-04-17T08:43:50.317Z,11.27
2023-04-17T08:48:02.785Z,13.98
2023-04-17T08:52:15.261Z,11.10
2023-04-17T08:56:29.962Z,11.68
2023-04-17T09:00:44.217Z,12.45
2023-04-17T09:04:57.078Z,12.10
2023-04-17T09:09:09.808Z,16.80
2023-04-17T09:13:28.011Z,14.40
2023-04-17T09:17:40.446Z,17.25
2023-04-17T09:21:55.018Z,8.38
2023-04-17T09:26:09.964Z,4.32
2023-04-17T09:30:27.202Z,8.15
2023-04-17T09:34:42.643Z,6.63
2023-04-17T09:38:55.162Z,10.68
2023-04-17T09:43:11.877Z,7.22
2023-04-17T09:47:24.466Z,5.70
2023-04-17T09:51:37.485Z,4.75
2023-04-17T09:55:53.522Z,7.38
2023-04-17T10:00:11.178Z,4.57
2023-04-17T10:04:23.849Z,5.20
2023-04-17T10:08:36.542Z,7.97
2023-04-17T10:12:50.883Z,6.40
2023-04-17T10:17:28.976Z,5.50
2023-04-17T10:21:41.742Z,8.65
2023-04-17T10:26:26.074Z,8.05
2023-04-17T10:30:54.841Z,7.53
2023-04-17T10:35:18.277Z,4.53
2023-04-17T10:40:02.069Z,7.85
2023-04-17T10:44:16.739Z,4.28
2023-04-17T10:48:31.310Z,8.02
2023-04-17T10:52:45.943Z,8.13
2023-04-17T10:56:58.702Z,5.88
2023-04-17T11:01:12.370Z,4.65
2023-04-17T11:05:24.986Z,6.85
2023-04-17T11:09:38.617Z,5.20
2023-04-17T11:13:51.159Z,4.68
2023-04-17T11:18:04.433Z,5.63
2023-04-17T11:22:17.397Z,8.15
2023-04-17T11:26:29.868Z,6.50
2023-04-17T11:30:44.898Z,7.32
2023-04-17T11:34:58.208Z,4.68
2023-04-17T11:39:11.180Z,9.73
2023-04-17T11:43:24.917Z,3.25
2023-04-17T11:47:37.482Z,3.83
2023-04-17T11:51:49.913Z,4.95
2023-04-17T11:56:31.703Z,7.82
2023-04-17T12:00:44.247Z,10.57
2023-04-17T12:05:13.906Z,2.55
2023-04-17T12:09:31.642Z,3.60
2023-04-17T12:13:44.256Z,5.13
2023-04-17T12:17:56.753Z,4.05
2023-04-17T12:22:09.183Z,3.40
2023-04-17T12:26:22.268Z,3.33
2023-04-17T12:30:36.356Z,5.47
2023-04-17T12:34:48.822Z,4.07
2023-04-17T12:39:01.781Z,7.07
2023-04-17T12:43:14.341Z,3.70
2023-04-17T12:47:27.636Z,2.65
2023-04-17T12:51:40.179Z,4.40
2023-04-17T12:55:52.813Z,4.10
2023-04-17T13:00:07.463Z,5.63
2023-04-17T13:04:20.315Z,4.90
2023-04-17T13:08:33.159Z,6.65
2023-04-17T13:12:45.671Z,1.90
2023-04-17T13:16:58.205Z,4.93
2023-04-17T13:21:10.789Z,4.78
2023-04-17T13:25:23.238Z,3.75
2023-04-17T13:29:36.143Z,2.60
2023-04-17T13:33:49.478Z,3.65
2023-04-17T13:38:03.339Z,2.67
2023-04-17T13:42:17.151Z,8.18
2023-04-17T13:46:30.203Z,12.00
2023-04-17T13:50:44.260Z,5.28
2023-04-17T13:54:56.699Z,5.80
2023-04-17T13:59:10.636Z,6.18
2023-04-17T14:03:23.298Z,6.65
2023-04-17T14:07:35.898Z,6.32
2023-04-17T14:11:48.333Z,4.60
2023-04-17T14:16:00.724Z,6.53
2023-04-17T14:20:15.404Z,5.35
2023-04-17T14:24:27.910Z,4.50
2023-04-17T14:28:40.473Z,4.68
2023-04-17T14:32:53.799Z,4.53
2023-04-17T14:37:06.353Z,4.93
2023-04-17T14:41:18.778Z,3.83
2023-04-17T14:45:31.189Z,4.35
2023-04-17T14:49:43.584Z,6.93
2023-04-17T14:53:56.021Z,5.70
2023-04-17T14:58:08.743Z,4.93
2023-04-17T15:02:21.381Z,5.40
2023-04-17T15:06:33.903Z,4.70
2023-04-17T15:10:51.243Z,4.38
2023-04-17T15:15:04.489Z,5.78
2023-04-17T15:19:16.961Z,9.00
2023-04-17T15:23:31.689Z,4.05
2023-04-17T15:27:44.005Z,4.28
2023-04-17T15:31:56.587Z,3.20
2023-04-17T15:36:09.086Z,3.47
2023-04-17T15:40:21.733Z,2.92
2023-04-17T15:44:35.488Z,2.70
2023-04-17T15:48:57.664Z,2.50
2023-04-17T15:53:19.704Z,3.17
2023-04-17T15:57:32.037Z,4.80
2023-04-17T16:01:46.914Z,4.03
2023-04-17T16:05:59.540Z,9.75
2023-04-17T16:10:14.867Z,4.68
2023-04-17T16:14:27.984Z,4.65
2023-04-17T16:18:40.851Z,4.22
2023-04-17T16:22:53.312Z,5.93
2023-04-17T16:27:07.128Z,4.80
2023-04-17T16:31:21.608Z,4.35
2023-04-17T16:35:34.188Z,4.85
2023-04-17T16:39:47.552Z,3.95
2023-04-17T16:43:59.919Z,4.65
2023-04-17T16:48:12.784Z,4.82
2023-04-17T16:52:25.544Z,6.47
2023-04-17T16:56:38.068Z,5.55
2023-04-17T17:00:51.472Z,4.78
2023-04-17T17:05:04.693Z,4.82
2023-04-17T17:09:17.412Z,5.78
2023-04-17T17:13:30.125Z,4.60
2023-04-17T17:17:43.398Z,5.70
2023-04-17T17:21:55.771Z,2.80
2023-04-17T17:26:08.636Z,4.07
2023-04-17T17:30:22.665Z,4.45
2023-04-17T17:34:36.370Z,6.47
2023-04-17T17:38:56.080Z,5.13
2023-04-17T17:43:08.662Z,6.65
2023-04-17T17:47:21.090Z,9.38
2023-04-17T17:51:36.127Z,8.23
2023-04-17T17:55:52.637Z,8.55
2023-04-17T18:00:05.514Z,6.95
2023-04-17T18:04:18.153Z,9.57
2023-04-17T18:08:31.206Z,9.02
2023-04-17T18:12:43.928Z,8.63
2023-04-17T18:16:58.522Z,9.00
2023-04-17T18:21:12.160Z,6.88
2023-04-17T18:25:24.773Z,10.02
2023-04-17T18:29:37.253Z,10.63
2023-04-17T18:33:49.671Z,11.40
2023-04-17T18:38:02.136Z,9.85
2023-04-17T18:42:14.569Z,8.68
2023-04-17T18:46:30.662Z,9.15
2023-04-17T18:50:43.334Z,9.68
2023-04-17T18:54:55.780Z,9.18
2023-04-17T18:59:08.231Z,9.05
2023-04-17T19:03:20.657Z,13.70
2023-04-17T19:07:33.071Z,11.52
2023-04-17T19:11:46.067Z,9.52
2023-04-17T19:15:58.587Z,7.68
2023-04-17T19:20:11.197Z,7.60
2023-04-17T19:24:23.646Z,6.45
2023-04-17T19:28:36.727Z,8.52
2023-04-17T19:32:49.287Z,8.82
2023-04-17T19:37:01.724Z,8.85
2023-04-17T19:41:20.141Z,9.18
2023-04-17T19:45:34.513Z,9.25
2023-04-17T19:49:49.173Z,10.68
2023-04-17T19:54:01.567Z,12.30
2023-04-17T19:58:13.982Z,13.75
2023-04-17T20:02:27.153Z,10.55
2023-04-17T20:06:41.241Z,15.18
2023-04-17T20:10:53.807Z,17.73
2023-04-17T20:15:06.599Z,16.85
2023-04-17T20:19:19.093Z,18.10
2023-04-17T20:23:31.493Z,18.65
2023-04-17T20:27:43.865Z,15.80
2023-04-17T20:31:56.303Z,17.05
2023-04-17T20:36:08.802Z,13.52
2023-04-17T20:40:23.170Z,14.48
2023-04-17T20:44:35.636Z,9.55
2023-04-17T20:48:48.870Z,6.35
2023-04-17T20:53:01.130Z,8.43
2023-04-17T20:57:13.547Z,9.65
2023-04-17T21:01:26.046Z,11.75
2023-04-17T21:05:38.534Z,14.68
2023-04-17T21:09:51.225Z,15.93
2023-04-17T21:14:04.106Z,16.13
2023-04-17T21:18:16.494Z,16.13
2023-04-17T21:22:28.863Z,14.32
2023-04-17T21:26:41.269Z,15.63
2023-04-17T21:30:53.987Z,15.88
2023-04-17T21:35:07.299Z,14.98
2023-04-17T21:39:19.832Z,16.65
2023-04-17T21:43:32.278Z,13.52
2023-04-17T21:47:44.689Z,10.45
2023-04-17T21:51:57.630Z,12.45
2023-04-17T21:56:10.126Z,8.85
2023-04-17T22:00:23.139Z,10.13
2023-04-17T22:04:36.009Z,14.88
2023-04-17T22:08:48.604Z,12.27
2023-04-17T22:13:01.108Z,13.95
2023-04-17T22:17:13.613Z,13.95
2023-04-17T22:21:45.009Z,16.60
2023-04-17T22:26:16.293Z,16.92
2023-04-17T22:31:27.553Z,17.15
2023-04-17T22:35:39.944Z,13.98
2023-04-17T22:40:30.444Z,10.20
2023-04-17T22:45:38.684Z,8.43
2023-04-17T22:50:50.105Z,5.68
2023-04-17T22:55:04.347Z,5.35
2023-04-17T22:59:54.201Z,6.65
2023-04-17T23:04:43.801Z,5.70
2023-04-17T23:09:33.205Z,5.80
2023-04-17T23:13:45.730Z,4.97
2023-04-17T23:17:58.141Z,4.50
2023-04-17T23:22:10.716Z,5.53
2023-04-17T23:26:23.342Z,4.78
2023-04-17T23:30:36.088Z,4.28
2023-04-17T23:34:48.757Z,3.40
2023-04-17T23:39:01.719Z,3.83
2023-04-17T23:43:14.437Z,4.47
2023-04-17T23:47:27.058Z,4.82
2023-04-17T23:51:39.755Z,3.40
2023-04-17T23:55:52.480Z,3.45
